Weather observations for the past three days for
Fort Worth Spinks Airport
Imperial (Metric)
Date Time (cdt) Wind (mph) Vis. (mi.) Weather Sky Cond. Temperature (ºF) Relative Humidity Wind Chill (°F) Heat Index (°F) Pressure Precipitation (in)
Air Dwpt 6 hour altimeter (in) sea level (mb) 1 hr 3 hr 6 hr
Max. Min.
09 18:50 SE 3 10.00 Fair CLR 87.8 62.6 43% 88 29.77 0.0
09 17:50 SE 6 10.00 Fair CLR 89.6 60.8 38% 90 29.77 0.0
09 16:50 SE 6 10.00 Fair CLR 89.6 60.8 38% 90 29.77 0.0
09 15:50 Calm 10.00 Fair CLR 89.6 60.8 38% 90 29.79 0.0
09 14:50 E 5 10.00 Fair CLR 89.6 62.6 41% 90 29.81 0.0
09 13:50 E 2 10.00 Fair CLR 87.8 62.6 43% 88 29.82 0.0
09 12:50 NW 6 10.00 Fair CLR 86 64.4 49% 87 29.84 0.0
09 11:55 N 8 10.00 Fair CLR 84.2 64.4 51% 86 29.86 0.0
09 10:55 NW 8 10.00 Fair CLR 80.6 64.4 58% 82 29.86 0.0
09 09:54 N 8 10.00 Fair CLR 78.8 64.4 61% 81 29.86 0.0
09 08:47 NW 8 10.00 Fair CLR 71.6 64.4 78% 29.86 0.0
09 07:51 NW 6 10.00 Fair CLR 71.6 62.6 73% 29.85 0.0
09 06:47 Calm 10.00 Fair CLR 62.6 59 88% 29.84 0.0
09 06:35 W 5 10.00 Partly Cloudy SCT190 66.2 60.3 81% 29.84 0.0
09 06:15 W 5 9.00 Mostly Cloudy BKN190 67.5 61.7 82% 29.83 0.0
09 05:55 NW 5 10.00 Mostly Cloudy SCT015 SCT021 BKN026 70.2 66.6 88% 29.83 0.0
09 05:35 NW 5 10.00 Overcast BKN014 OVC020 71.2 67.8 89% 29.82 0.0
09 05:15 NW 12 10.00 Mostly Cloudy BKN012 71.1 68.5 92% 29.82 0.0
09 04:55 S 12 10.00 Fair CLR 70.3 68.7 95% 29.75 0.0
09 04:35 S 13 10.00 Fair CLR 70.2 68.7 95% 29.73 0.0
09 04:15 S 13 10.00 Fair CLR 69.6 68.4 96% 29.75 0.0
09 03:55 S 13 10.00 Fair CLR 69.6 68.4 96% 29.77 0.0
09 03:35 S 12 10.00 Fair CLR 69.3 68.2 96% 29.77 0.0
09 03:15 S 8 10.00 Fair CLR 68.7 67.8 97% 29.8 0.0
09 02:55 S 8 10.00 A Few Clouds FEW017 68 67.5 98% 29.84 0.0
09 02:35 SW 6 10.00 Partly Cloudy SCT015 69.3 67.8 95% 29.86 0.0
09 02:15 NW 15 10.00 Overcast BKN016 OVC021 69.8 68.5 96% 29.89 0.0
09 01:55 W 5 10.00 Overcast OVC017 69.4 68.7 98% 29.89 0.0
09 01:35 NW 3 8.00 Overcast OVC017 68.5 68.5 100% 29.88 0.0
09 01:15 N 5 6.00 Fog/Mist BKN018 67.1 67.1 100% 29.87 0.0
09 00:55 N 8 3.00 Fog/Mist CLR 64.6 64.6 73.9 64.6 100% 29.87 0.0
09 00:35 Calm 4.00 Fog/Mist CLR 65.5 65.5 100% 29.84 0.0
09 00:15 S 3 9.00 Fair CLR 66.6 66.6 100% 29.85 0.0
08 23:55 S 3 10.00 Fair CLR 66.9 66.7 99% 29.85 0.0
08 23:35 E 3 10.00 Fair CLR 68.4 67.6 98% 29.85 0.0
08 23:15 Calm 10.00 Fair CLR 70 67.8 93% 29.85 0.0
08 22:55 S 7 10.00 A Few Clouds FEW070 70.2 68.2 93% 29.83 0.0
08 22:35 S 8 10.00 Partly Cloudy SCT070 70.7 68.4 92% 29.83 0.0
08 22:15 S 8 10.00 Fair CLR 70.7 68.4 92% 29.82 0.0
08 21:55 S 8 10.00 A Few Clouds FEW019 70.7 68.2 92% 29.8 0.0
08 21:35 S 7 8.00 Mostly Cloudy BKN020 70.9 68.4 92% 29.81 0.0
08 21:15 S 6 10.00 Overcast OVC020 71.4 68.9 92% 29.81 0.0
08 20:55 S 3 10.00 Overcast OVC021 71.8 68.9 91% 29.8 0.0
08 20:35 S 6 10.00 Overcast OVC021 72.1 68.7 89% 29.8 0.0
08 20:15 S 7 10.00 Overcast OVC020 71.6 68.9 91% 29.79 0.0
08 19:55 S 6 10.00 Overcast OVC020 73 68.5 86% 29.78 0.0
08 18:47 S 3 10.00 Mostly Cloudy BKN020 73.4 68 83% 29.79 0.0
08 17:47 S 9 10.00 Mostly Cloudy BKN020 73.4 68 83% 29.79 0.0
08 16:47 S 7 10.00 Mostly Cloudy BKN023 71.6 66.2 83% 29.81 0.0
08 15:50 Calm 10.00 Mostly Cloudy BKN023 BKN100 68 64.4 88% 29.84 0.0
08 14:47 SW 7 10.00 Thunderstorm in Vicinity OVC023 69.8 60.8 73% 29.88 0.0
08 13:48 S 9 10.00 Overcast OVC024 69.8 60.8 73% 29.88 0.0
08 12:47 SE 8 10.00 Overcast OVC026 71.6 59 65% 29.9 0.0
08 11:50 SE 10 10.00 Overcast OVC025 71.6 59 65% 29.93 0.0
08 10:50 SE 8 10.00 Overcast OVC023 68 57.2 69% 29.95 0.0
08 09:53 SE 3 10.00 Overcast OVC020 64.4 57.2 78% 29.97 0.0
08 08:50 SE 5 10.00 Mostly Cloudy BKN020 64.4 57.2 78% 29.97 0.0
08 07:50 Calm 10.00 Fair CLR 59 59 100% 29.98 0.0
08 06:35 SE 3 10.00 Mostly Cloudy BKN080 55 54.7 99% 29.97 0.0
08 06:15 N 6 7.00 Mostly Cloudy SCT080 BKN130 55.8 55 97% 29.98 0.0
08 05:55 S 5 10.00 Mostly Cloudy BKN130 56.8 55.9 97% 29.96 0.0
08 05:35 S 3 10.00 Mostly Cloudy FEW085 BKN130 56.8 56.3 98% 29.97 0.0
08 05:15 S 5 10.00 Mostly Cloudy BKN090 57 56.5 98% 29.96 0.0
08 04:55 S 5 10.00 A Few Clouds FEW095 55.2 55.2 100% 29.95 0.0
08 04:35 S 5 10.00 A Few Clouds FEW085 54.9 54.9 100% 29.96 0.0
08 04:15 Calm 10.00 Mostly Cloudy SCT085 BKN150 55.4 55.4 100% 29.96 0.0
08 03:55 Calm 9.00 A Few Clouds FEW140 56.1 55.8 99% 29.96 0.0
08 03:35 Calm 10.00 Partly Cloudy FEW090 SCT140 56.5 56.5 100% 29.96 0.0
08 03:15 SE 3 9.00 Partly Cloudy SCT080 SCT100 SCT130 56.8 56.7 99% 29.97 0.0
08 02:55 SE 3 10.00 Overcast OVC075 58.8 58.5 99% 29.99 0.0
08 02:35 Calm 6.00 Fog/Mist OVC075 59.4 58.1 96% 30 0.0
08 02:15 Calm 7.00 Overcast BKN075 OVC090 58.3 57.2 96% 29.99 0.0
08 01:55 Calm 10.00 Overcast BKN075 OVC095 57.2 57 99% 29.99 0.0
08 01:35 Calm 10.00 Overcast OVC075 57.2 57.2 100% 29.99 0.0
08 01:15 Calm 10.00 Overcast OVC075 57 57 100% 30 0.0
08 00:55 Calm 9.00 Partly Cloudy FEW075 SCT130 55 55 65.3 54.9 100% 30 0.0
08 00:35 S 3 9.00 Fair CLR 55.2 55.2 100% 30.01 0.0
08 00:15 Calm 9.00 Fair CLR 55.8 55.4 99% 30.01 0.0
07 23:55 Calm 9.00 A Few Clouds FEW120 56.1 55.4 97% 30.01 0.0
07 23:35 Calm 9.00 A Few Clouds FEW120 57.9 55.4 91% 30 0.0
07 23:15 Calm 7.00 Partly Cloudy SCT120 58.6 56.7 93% 30 0.0
07 22:55 Calm 10.00 Partly Cloudy SCT130 57.7 56.1 94% 30 0.0
07 22:35 Calm 10.00 Mostly Cloudy BKN120 59.2 55.8 89% 30 0.0
07 22:15 Calm 10.00 Partly Cloudy SCT120 59.4 55 86% 30 0.0
07 21:55 SE 3 10.00 A Few Clouds FEW130 59.2 55.8 89% 29.98 0.0
07 21:35 SE 3 10.00 Partly Cloudy SCT130 61.2 55.4 81% 29.98 0.0
07 21:15 SE 5 10.00 Mostly Cloudy SCT130 BKN160 60.8 56.1 85% 29.98 0.0
07 20:55 SE 3 10.00 Partly Cloudy FEW130 SCT160 61 56.7 86% 29.98 0.0
07 20:35 SE 3 10.00 Mostly Cloudy SCT130 BKN160 61.5 57 85% 29.98 0.0
07 20:15 Calm 9.00 Mostly Cloudy BKN150 62.6 56.5 81% 29.98 0.0
07 19:55 S 3 10.00 Overcast BKN140 OVC290 63.7 55.8 76% 29.98 0.0
07 18:52 S 6 10.00 Fair CLR 66.2 53.6 64% 29.99 0.0
07 17:47 S 6 10.00 Fair CLR 68 55.4 64% 29.99 0.0
07 16:46 S 5 10.00 Fair CLR 69.8 51.8 53% 30 0.0
07 15:54 S 6 10.00 Fair CLR 69.8 51.8 53% 30.03 0.0
07 14:55 NE 6 10.00 Fair CLR 69.8 50 50% 30.02 0.0
07 13:55 E 5 10.00 Fair CLR 69.8 48.2 46% 30.06 0.0
07 12:47 NE 9 10.00 Fair CLR 68 51.8 56% 30.07 0.0
07 10:47 NE 8 10.00 Fair CLR 62.6 53.6 73% 30.11 0.0
07 09:55 NE 6 10.00 Fair CLR 62.6 53.6 73% 30.13 0.0
07 08:47 N 5 10.00 Fair CLR 57.2 53.6 88% 30.14 0.0
07 07:51 Calm 10.00 Fair CLR 55.4 53.6 94% 30.14 0.0
07 06:47 Calm 10.00 Fair CLR 51.8 50 94% 30.14 0.0
07 06:35 NW 5 10.00 A Few Clouds FEW290 52 50.7 96% 30.13 0.0
07 06:15 NW 5 10.00 Mostly Cloudy BKN290 52.3 51.3 96% 30.12 0.0
07 05:55 NW 5 10.00 Partly Cloudy SCT290 51.6 50.9 97% 30.12 0.0
07 05:35 N 5 10.00 Fair CLR 50.5 50 98% 30.1 0.0
07 05:15 N 5 10.00 Fair CLR 51.1 50.5 98% 30.09 0.0
07 04:55 N 7 10.00 Fair CLR 50.7 50 97% 30.08 0.0
07 04:35 N 5 10.00 Fair CLR 51.4 50.5 97% 30.08 0.0
07 04:15 NE 6 10.00 A Few Clouds FEW290 51.6 50.9 97% 30.06 0.0
07 03:55 Calm 10.00 Partly Cloudy SCT290 52.5 51.6 97% 30.07 0.0
07 03:35 NE 5 10.00 A Few Clouds FEW290 53.4 52 95% 30.06 0.0
07 03:15 NE 9 10.00 Partly Cloudy FEW031 SCT290 54.3 52.5 94% 30.05 0.0
07 02:55 NE 6 10.00 Mostly Cloudy BKN030 55 52.7 92% 30.06 0.0
07 02:35 NE 7 10.00 Overcast OVC029 55.8 52.9 90% 30.05 0.0
07 02:15 N 7 10.00 Overcast OVC027 56.1 53.4 91% 30.04 0.0
07 01:55 NE 7 10.00 Overcast OVC023 56.7 54.3 92% 30.03 0.0
07 01:35 E 9 10.00 Overcast OVC021 57.6 54 88% 30.03 0.0
07 01:15 NE 3 10.00 Overcast OVC022 57.4 54.5 90% 30.03 0.0
07 00:55 E 9 10.00 Overcast OVC020 57.7 53.6 59.7 56.5 86% 30.03 0.0
07 00:35 NE 7 10.00 Overcast OVC021 57.4 54 88% 30.03 0.0
07 00:15 NE 7 9.00 Overcast OVC022 57.6 54.1 88% 30.03 0.0
06 23:55 NE 7 10.00 Overcast OVC022 58.1 54.9 89% 30.03 0.0
06 23:35 NE 6 10.00 Overcast OVC022 58.3 56.5 94% 30.04 0.0
06 23:15 E 5 10.00 Overcast OVC024 58.5 56.8 94% 30.04 0.0
06 22:55 NE 5 10.00 Overcast OVC026 58.5 57 95% 30.04 0.0
06 22:35 E 3 10.00 Overcast OVC026 58.6 57.2 95% 30.04 0.0
06 22:15 NE 6 10.00 Overcast OVC026 58.8 57.4 95% 30.04 0.0
06 21:55 NE 5 10.00 Overcast OVC028 58.3 57.7 98% 30.03 0.0
06 21:35 NE 5 10.00 Mostly Cloudy BKN028 57.9 57.4 98% 30.02 0.0
06 21:15 NE 5 10.00 A Few Clouds FEW024 57 56.7 99% 30.01 0.0
06 20:55 NE 3 10.00 Mostly Cloudy FEW032 BKN290 57.4 57 99% 29.99 0.0
06 20:35 NE 3 10.00 Partly Cloudy SCT032 57.6 56.7 97% 29.98 0.0
06 20:15 NE 5 9.00 Overcast OVC030 58.5 57.2 96% 29.97 0.0
06 19:55 NE 3 10.00 Overcast OVC029 59.5 57.6 93% 29.96 0.0
Date Time (cdt) Wind (mph) Vis. (mi.) Weather Sky Cond. Air Dwpt Max. Min. Relative Humidity Wind Chill (°F) Heat Index (°F) altimeter (in) sea level (mb) 1 hr 3 hr 6 hr
6 hour
Temperature (ºF) Pressure Precipitation (in)